sensor_id;sensor_type;location;lat;lon;timestamp;P1;durP1;ratioP1;P2;durP2;ratioP2
19030;SDS011;9648;51.130;13.978;2024-01-06T00:02:10;6.47;;;3.63;;
19030;SDS011;9648;51.130;13.978;2024-01-06T00:05:11;6.97;;;3.60;;
19030;SDS011;9648;51.130;13.978;2024-01-06T00:08:13;7.53;;;3.63;;
19030;SDS011;9648;51.130;13.978;2024-01-06T00:11:14;6.60;;;3.40;;
19030;SDS011;9648;51.130;13.978;2024-01-06T00:14:17;6.40;;;3.13;;
19030;SDS011;9648;51.130;13.978;2024-01-06T00:17:19;6.00;;;3.50;;
19030;SDS011;9648;51.130;13.978;2024-01-06T00:20:20;8.03;;;3.80;;
19030;SDS011;9648;51.130;13.978;2024-01-06T00:23:22;7.67;;;3.47;;
19030;SDS011;9648;51.130;13.978;2024-01-06T00:26:23;10.40;;;4.67;;
19030;SDS011;9648;51.130;13.978;2024-01-06T00:29:26;9.00;;;4.30;;
19030;SDS011;9648;51.130;13.978;2024-01-06T00:32:28;10.23;;;5.10;;
19030;SDS011;9648;51.130;13.978;2024-01-06T00:35:30;7.93;;;4.47;;
19030;SDS011;9648;51.130;13.978;2024-01-06T00:38:31;8.20;;;4.43;;
19030;SDS011;9648;51.130;13.978;2024-01-06T00:41:35;8.43;;;4.60;;
19030;SDS011;9648;51.130;13.978;2024-01-06T00:44:37;9.03;;;4.40;;
19030;SDS011;9648;51.130;13.978;2024-01-06T00:47:39;6.30;;;3.80;;
19030;SDS011;9648;51.130;13.978;2024-01-06T00:50:40;8.23;;;4.17;;
19030;SDS011;9648;51.130;13.978;2024-01-06T00:53:42;8.47;;;4.67;;
19030;SDS011;9648;51.130;13.978;2024-01-06T00:56:43;8.63;;;4.10;;
19030;SDS011;9648;51.130;13.978;2024-01-06T00:59:46;7.13;;;3.90;;
19030;SDS011;9648;51.130;13.978;2024-01-06T01:02:48;7.53;;;4.20;;
19030;SDS011;9648;51.130;13.978;2024-01-06T01:05:49;8.30;;;3.90;;
19030;SDS011;9648;51.130;13.978;2024-01-06T01:08:51;7.13;;;3.87;;
19030;SDS011;9648;51.130;13.978;2024-01-06T01:11:52;7.13;;;4.20;;
19030;SDS011;9648;51.130;13.978;2024-01-06T01:14:55;8.53;;;4.17;;
19030;SDS011;9648;51.130;13.978;2024-01-06T01:17:56;6.40;;;3.63;;
19030;SDS011;9648;51.130;13.978;2024-01-06T01:20:58;6.37;;;3.47;;
19030;SDS011;9648;51.130;13.978;2024-01-06T01:23:59;7.03;;;3.50;;
19030;SDS011;9648;51.130;13.978;2024-01-06T01:27:01;7.70;;;3.93;;
19030;SDS011;9648;51.130;13.978;2024-01-06T01:30:04;8.30;;;3.83;;
19030;SDS011;9648;51.130;13.978;2024-01-06T01:33:07;7.73;;;3.97;;
19030;SDS011;9648;51.130;13.978;2024-01-06T01:36:08;6.43;;;4.00;;
19030;SDS011;9648;51.130;13.978;2024-01-06T01:39:10;8.70;;;4.13;;
19030;SDS011;9648;51.130;13.978;2024-01-06T01:42:11;8.80;;;3.93;;
19030;SDS011;9648;51.130;13.978;2024-01-06T01:45:14;7.30;;;3.87;;
19030;SDS011;9648;51.130;13.978;2024-01-06T01:48:16;7.03;;;3.90;;
19030;SDS011;9648;51.130;13.978;2024-01-06T01:51:17;8.50;;;3.93;;
19030;SDS011;9648;51.130;13.978;2024-01-06T01:54:19;8.23;;;4.20;;
19030;SDS011;9648;51.130;13.978;2024-01-06T01:57:22;6.27;;;3.77;;
19030;SDS011;9648;51.130;13.978;2024-01-06T02:00:26;10.00;;;4.60;;
19030;SDS011;9648;51.130;13.978;2024-01-06T02:03:29;7.60;;;4.10;;
19030;SDS011;9648;51.130;13.978;2024-01-06T02:06:31;8.33;;;4.40;;
19030;SDS011;9648;51.130;13.978;2024-01-06T02:09:34;9.63;;;5.13;;
19030;SDS011;9648;51.130;13.978;2024-01-06T02:12:36;8.97;;;4.90;;
19030;SDS011;9648;51.130;13.978;2024-01-06T02:15:39;8.73;;;4.83;;
19030;SDS011;9648;51.130;13.978;2024-01-06T02:18:40;9.03;;;4.10;;
19030;SDS011;9648;51.130;13.978;2024-01-06T02:21:42;7.50;;;3.97;;
19030;SDS011;9648;51.130;13.978;2024-01-06T02:24:46;7.23;;;4.10;;
19030;SDS011;9648;51.130;13.978;2024-01-06T02:27:47;8.73;;;4.50;;
19030;SDS011;9648;51.130;13.978;2024-01-06T02:30:49;8.27;;;4.17;;
19030;SDS011;9648;51.130;13.978;2024-01-06T02:33:51;8.03;;;4.13;;
19030;SDS011;9648;51.130;13.978;2024-01-06T02:36:52;8.40;;;4.30;;
19030;SDS011;9648;51.130;13.978;2024-01-06T02:39:55;10.50;;;5.37;;
19030;SDS011;9648;51.130;13.978;2024-01-06T02:42:57;11.73;;;5.70;;
19030;SDS011;9648;51.130;13.978;2024-01-06T02:45:58;11.57;;;6.00;;
19030;SDS011;9648;51.130;13.978;2024-01-06T02:49:00;12.47;;;5.50;;
19030;SDS011;9648;51.130;13.978;2024-01-06T02:52:02;13.77;;;6.03;;
19030;SDS011;9648;51.130;13.978;2024-01-06T02:55:06;11.83;;;5.87;;
19030;SDS011;9648;51.130;13.978;2024-01-06T02:58:08;12.87;;;6.17;;
19030;SDS011;9648;51.130;13.978;2024-01-06T03:01:28;10.73;;;5.13;;
19030;SDS011;9648;51.130;13.978;2024-01-06T03:04:48;10.43;;;5.53;;
19030;SDS011;9648;51.130;13.978;2024-01-06T03:08:08;12.63;;;6.10;;
19030;SDS011;9648;51.130;13.978;2024-01-06T03:11:30;11.50;;;6.00;;
19030;SDS011;9648;51.130;13.978;2024-01-06T03:14:50;12.43;;;5.77;;
19030;SDS011;9648;51.130;13.978;2024-01-06T03:18:10;11.60;;;6.20;;
19030;SDS011;9648;51.130;13.978;2024-01-06T03:21:18;12.23;;;6.23;;
19030;SDS011;9648;51.130;13.978;2024-01-06T03:24:20;12.77;;;6.37;;
19030;SDS011;9648;51.130;13.978;2024-01-06T03:27:23;11.17;;;6.13;;
19030;SDS011;9648;51.130;13.978;2024-01-06T03:30:25;11.53;;;5.67;;
19030;SDS011;9648;51.130;13.978;2024-01-06T03:33:26;13.33;;;6.43;;
19030;SDS011;9648;51.130;13.978;2024-01-06T03:36:28;14.53;;;7.03;;
19030;SDS011;9648;51.130;13.978;2024-01-06T03:39:30;10.77;;;6.03;;
19030;SDS011;9648;51.130;13.978;2024-01-06T03:42:33;12.07;;;6.03;;
19030;SDS011;9648;51.130;13.978;2024-01-06T03:45:34;9.47;;;5.30;;
19030;SDS011;9648;51.130;13.978;2024-01-06T03:48:36;10.47;;;5.50;;
19030;SDS011;9648;51.130;13.978;2024-01-06T03:51:37;10.43;;;4.97;;
19030;SDS011;9648;51.130;13.978;2024-01-06T03:54:39;9.40;;;5.00;;
19030;SDS011;9648;51.130;13.978;2024-01-06T03:57:42;10.57;;;5.00;;
19030;SDS011;9648;51.130;13.978;2024-01-06T04:00:43;8.63;;;4.77;;
19030;SDS011;9648;51.130;13.978;2024-01-06T04:03:45;10.70;;;4.63;;
19030;SDS011;9648;51.130;13.978;2024-01-06T04:06:46;9.37;;;4.70;;
19030;SDS011;9648;51.130;13.978;2024-01-06T04:09:48;11.37;;;5.37;;
19030;SDS011;9648;51.130;13.978;2024-01-06T04:12:51;8.20;;;4.80;;
19030;SDS011;9648;51.130;13.978;2024-01-06T04:15:52;11.20;;;5.30;;
19030;SDS011;9648;51.130;13.978;2024-01-06T04:18:53;10.93;;;5.23;;
19030;SDS011;9648;51.130;13.978;2024-01-06T04:21:55;9.03;;;4.60;;
19030;SDS011;9648;51.130;13.978;2024-01-06T04:24:57;9.23;;;4.87;;
19030;SDS011;9648;51.130;13.978;2024-01-06T04:27:59;9.90;;;4.87;;
19030;SDS011;9648;51.130;13.978;2024-01-06T04:31:01;11.37;;;5.60;;
19030;SDS011;9648;51.130;13.978;2024-01-06T04:34:02;11.27;;;5.30;;
19030;SDS011;9648;51.130;13.978;2024-01-06T04:37:04;12.63;;;5.53;;
19030;SDS011;9648;51.130;13.978;2024-01-06T04:40:06;11.70;;;5.77;;
19030;SDS011;9648;51.130;13.978;2024-01-06T04:43:09;13.70;;;5.67;;
19030;SDS011;9648;51.130;13.978;2024-01-06T04:46:11;11.50;;;5.63;;
19030;SDS011;9648;51.130;13.978;2024-01-06T04:49:12;13.30;;;6.40;;
19030;SDS011;9648;51.130;13.978;2024-01-06T04:52:14;10.87;;;4.93;;
19030;SDS011;9648;51.130;13.978;2024-01-06T04:55:15;9.77;;;4.90;;
19030;SDS011;9648;51.130;13.978;2024-01-06T04:58:18;10.83;;;5.20;;
19030;SDS011;9648;51.130;13.978;2024-01-06T05:01:20;8.80;;;5.10;;
19030;SDS011;9648;51.130;13.978;2024-01-06T05:04:21;15.30;;;7.17;;
19030;SDS011;9648;51.130;13.978;2024-01-06T05:07:25;13.60;;;6.80;;
19030;SDS011;9648;51.130;13.978;2024-01-06T05:10:27;13.47;;;6.33;;
19030;SDS011;9648;51.130;13.978;2024-01-06T05:13:29;12.93;;;6.67;;
19030;SDS011;9648;51.130;13.978;2024-01-06T05:16:34;11.50;;;5.57;;
19030;SDS011;9648;51.130;13.978;2024-01-06T05:19:36;10.70;;;5.80;;
19030;SDS011;9648;51.130;13.978;2024-01-06T05:22:38;11.07;;;6.37;;
19030;SDS011;9648;51.130;13.978;2024-01-06T05:25:39;15.47;;;6.13;;
19030;SDS011;9648;51.130;13.978;2024-01-06T05:28:42;13.07;;;5.70;;
19030;SDS011;9648;51.130;13.978;2024-01-06T05:31:44;12.33;;;5.73;;
19030;SDS011;9648;51.130;13.978;2024-01-06T05:34:48;10.00;;;5.20;;
19030;SDS011;9648;51.130;13.978;2024-01-06T05:37:49;10.93;;;5.23;;
19030;SDS011;9648;51.130;13.978;2024-01-06T05:40:51;9.80;;;5.10;;
19030;SDS011;9648;51.130;13.978;2024-01-06T05:43:54;9.97;;;4.90;;
19030;SDS011;9648;51.130;13.978;2024-01-06T05:46:56;11.70;;;5.30;;
19030;SDS011;9648;51.130;13.978;2024-01-06T05:49:57;12.33;;;5.43;;
19030;SDS011;9648;51.130;13.978;2024-01-06T05:52:59;8.17;;;4.43;;
19030;SDS011;9648;51.130;13.978;2024-01-06T05:56:00;9.50;;;5.30;;
19030;SDS011;9648;51.130;13.978;2024-01-06T05:59:03;12.47;;;6.00;;
19030;SDS011;9648;51.130;13.978;2024-01-06T06:02:05;10.30;;;5.23;;
19030;SDS011;9648;51.130;13.978;2024-01-06T06:05:07;10.87;;;5.43;;
19030;SDS011;9648;51.130;13.978;2024-01-06T06:08:08;9.03;;;4.83;;
19030;SDS011;9648;51.130;13.978;2024-01-06T06:11:10;11.53;;;5.53;;
19030;SDS011;9648;51.130;13.978;2024-01-06T06:14:13;11.70;;;5.37;;
19030;SDS011;9648;51.130;13.978;2024-01-06T06:17:14;11.30;;;5.23;;
19030;SDS011;9648;51.130;13.978;2024-01-06T06:20:16;10.00;;;5.23;;
19030;SDS011;9648;51.130;13.978;2024-01-06T06:23:17;16.10;;;7.23;;
19030;SDS011;9648;51.130;13.978;2024-01-06T06:26:19;12.37;;;6.50;;
19030;SDS011;9648;51.130;13.978;2024-01-06T06:29:22;12.20;;;6.40;;
19030;SDS011;9648;51.130;13.978;2024-01-06T06:32:24;10.93;;;5.67;;
19030;SDS011;9648;51.130;13.978;2024-01-06T06:35:25;11.47;;;5.57;;
19030;SDS011;9648;51.130;13.978;2024-01-06T06:38:27;11.70;;;5.27;;
19030;SDS011;9648;51.130;13.978;2024-01-06T06:41:29;11.47;;;5.53;;
19030;SDS011;9648;51.130;13.978;2024-01-06T06:44:33;12.13;;;5.70;;
19030;SDS011;9648;51.130;13.978;2024-01-06T06:47:34;11.40;;;5.77;;
19030;SDS011;9648;51.130;13.978;2024-01-06T06:50:36;10.77;;;5.13;;
19030;SDS011;9648;51.130;13.978;2024-01-06T06:53:38;9.90;;;4.80;;
19030;SDS011;9648;51.130;13.978;2024-01-06T06:56:39;10.53;;;5.43;;
19030;SDS011;9648;51.130;13.978;2024-01-06T06:59:42;12.97;;;5.97;;
19030;SDS011;9648;51.130;13.978;2024-01-06T07:02:44;8.63;;;5.07;;
19030;SDS011;9648;51.130;13.978;2024-01-06T07:05:45;11.67;;;5.77;;
19030;SDS011;9648;51.130;13.978;2024-01-06T07:08:47;10.00;;;5.17;;
19030;SDS011;9648;51.130;13.978;2024-01-06T07:11:48;12.40;;;5.83;;
19030;SDS011;9648;51.130;13.978;2024-01-06T07:14:51;9.90;;;5.80;;
19030;SDS011;9648;51.130;13.978;2024-01-06T07:17:53;12.10;;;6.37;;
19030;SDS011;9648;51.130;13.978;2024-01-06T07:20:54;11.40;;;6.50;;
19030;SDS011;9648;51.130;13.978;2024-01-06T07:23:55;11.67;;;6.13;;
19030;SDS011;9648;51.130;13.978;2024-01-06T07:26:57;10.40;;;5.87;;
19030;SDS011;9648;51.130;13.978;2024-01-06T07:30:00;10.17;;;5.63;;
19030;SDS011;9648;51.130;13.978;2024-01-06T07:33:01;9.90;;;5.10;;
19030;SDS011;9648;51.130;13.978;2024-01-06T07:36:03;12.40;;;5.93;;
19030;SDS011;9648;51.130;13.978;2024-01-06T07:39:05;11.23;;;5.83;;
19030;SDS011;9648;51.130;13.978;2024-01-06T07:42:07;11.63;;;6.57;;
19030;SDS011;9648;51.130;13.978;2024-01-06T07:45:10;10.70;;;5.93;;
19030;SDS011;9648;51.130;13.978;2024-01-06T07:48:13;10.30;;;5.90;;
19030;SDS011;9648;51.130;13.978;2024-01-06T07:51:15;10.10;;;5.30;;
19030;SDS011;9648;51.130;13.978;2024-01-06T07:54:17;12.70;;;6.33;;
19030;SDS011;9648;51.130;13.978;2024-01-06T07:57:18;9.43;;;5.17;;
19030;SDS011;9648;51.130;13.978;2024-01-06T08:00:22;12.13;;;5.97;;
19030;SDS011;9648;51.130;13.978;2024-01-06T08:03:24;12.37;;;6.67;;
19030;SDS011;9648;51.130;13.978;2024-01-06T08:06:26;15.67;;;7.53;;
19030;SDS011;9648;51.130;13.978;2024-01-06T08:09:27;12.43;;;7.37;;
19030;SDS011;9648;51.130;13.978;2024-01-06T08:12:29;13.00;;;6.93;;
19030;SDS011;9648;51.130;13.978;2024-01-06T08:15:32;13.30;;;6.33;;
19030;SDS011;9648;51.130;13.978;2024-01-06T08:18:34;12.10;;;6.43;;
19030;SDS011;9648;51.130;13.978;2024-01-06T08:21:35;9.03;;;5.33;;
19030;SDS011;9648;51.130;13.978;2024-01-06T08:24:36;11.67;;;6.33;;
19030;SDS011;9648;51.130;13.978;2024-01-06T08:27:38;10.70;;;5.50;;
19030;SDS011;9648;51.130;13.978;2024-01-06T08:30:41;10.13;;;5.80;;
19030;SDS011;9648;51.130;13.978;2024-01-06T08:33:42;11.87;;;6.03;;
19030;SDS011;9648;51.130;13.978;2024-01-06T08:36:44;11.13;;;5.40;;
19030;SDS011;9648;51.130;13.978;2024-01-06T08:39:46;9.23;;;5.60;;
19030;SDS011;9648;51.130;13.978;2024-01-06T08:42:47;10.50;;;5.80;;
19030;SDS011;9648;51.130;13.978;2024-01-06T08:45:50;11.80;;;6.30;;
19030;SDS011;9648;51.130;13.978;2024-01-06T08:48:51;10.00;;;5.87;;
19030;SDS011;9648;51.130;13.978;2024-01-06T08:51:53;11.47;;;6.80;;
19030;SDS011;9648;51.130;13.978;2024-01-06T08:54:54;13.70;;;6.90;;
19030;SDS011;9648;51.130;13.978;2024-01-06T08:57:56;17.07;;;8.90;;
19030;SDS011;9648;51.130;13.978;2024-01-06T09:00:59;15.33;;;8.13;;
19030;SDS011;9648;51.130;13.978;2024-01-06T09:04:00;15.30;;;8.70;;
19030;SDS011;9648;51.130;13.978;2024-01-06T09:07:02;16.87;;;8.20;;
19030;SDS011;9648;51.130;13.978;2024-01-06T09:10:04;13.37;;;8.07;;
19030;SDS011;9648;51.130;13.978;2024-01-06T09:13:06;16.93;;;10.00;;
19030;SDS011;9648;51.130;13.978;2024-01-06T09:16:08;17.70;;;9.97;;
19030;SDS011;9648;51.130;13.978;2024-01-06T09:19:10;19.83;;;10.33;;
19030;SDS011;9648;51.130;13.978;2024-01-06T09:22:12;18.20;;;10.30;;
19030;SDS011;9648;51.130;13.978;2024-01-06T09:25:14;19.13;;;10.80;;
19030;SDS011;9648;51.130;13.978;2024-01-06T09:28:15;21.87;;;12.50;;
19030;SDS011;9648;51.130;13.978;2024-01-06T09:31:18;22.53;;;11.73;;
19030;SDS011;9648;51.130;13.978;2024-01-06T09:34:19;20.50;;;10.77;;
19030;SDS011;9648;51.130;13.978;2024-01-06T09:37:21;19.93;;;10.20;;
19030;SDS011;9648;51.130;13.978;2024-01-06T09:40:23;18.33;;;10.67;;
19030;SDS011;9648;51.130;13.978;2024-01-06T09:43:25;18.93;;;11.07;;
19030;SDS011;9648;51.130;13.978;2024-01-06T09:46:29;23.07;;;13.37;;
19030;SDS011;9648;51.130;13.978;2024-01-06T09:49:31;24.27;;;14.00;;
19030;SDS011;9648;51.130;13.978;2024-01-06T09:52:36;20.90;;;12.40;;
19030;SDS011;9648;51.130;13.978;2024-01-06T09:55:41;21.13;;;12.80;;
19030;SDS011;9648;51.130;13.978;2024-01-06T09:58:44;21.37;;;11.83;;
19030;SDS011;9648;51.130;13.978;2024-01-06T10:01:48;16.90;;;10.47;;
19030;SDS011;9648;51.130;13.978;2024-01-06T10:04:49;22.03;;;12.40;;
19030;SDS011;9648;51.130;13.978;2024-01-06T10:07:51;25.27;;;13.00;;
19030;SDS011;9648;51.130;13.978;2024-01-06T10:10:53;27.53;;;13.60;;
19030;SDS011;9648;51.130;13.978;2024-01-06T10:13:54;24.63;;;12.50;;
19030;SDS011;9648;51.130;13.978;2024-01-06T10:16:57;24.07;;;12.17;;
19030;SDS011;9648;51.130;13.978;2024-01-06T10:19:59;28.73;;;14.60;;
19030;SDS011;9648;51.130;13.978;2024-01-06T10:23:04;25.87;;;13.83;;
19030;SDS011;9648;51.130;13.978;2024-01-06T10:26:06;26.83;;;13.60;;
19030;SDS011;9648;51.130;13.978;2024-01-06T10:29:07;22.40;;;12.00;;
19030;SDS011;9648;51.130;13.978;2024-01-06T10:32:10;25.97;;;13.90;;
19030;SDS011;9648;51.130;13.978;2024-01-06T10:35:11;31.10;;;16.67;;
19030;SDS011;9648;51.130;13.978;2024-01-06T10:38:13;30.10;;;14.90;;
19030;SDS011;9648;51.130;13.978;2024-01-06T10:41:16;31.97;;;16.13;;
19030;SDS011;9648;51.130;13.978;2024-01-06T10:44:18;32.30;;;16.23;;
19030;SDS011;9648;51.130;13.978;2024-01-06T10:47:21;28.93;;;14.07;;
19030;SDS011;9648;51.130;13.978;2024-01-06T10:50:23;23.60;;;11.97;;
19030;SDS011;9648;51.130;13.978;2024-01-06T10:53:25;27.87;;;12.70;;
19030;SDS011;9648;51.130;13.978;2024-01-06T10:56:28;28.33;;;11.87;;
19030;SDS011;9648;51.130;13.978;2024-01-06T10:59:30;22.53;;;11.00;;
19030;SDS011;9648;51.130;13.978;2024-01-06T11:02:35;19.17;;;11.03;;
19030;SDS011;9648;51.130;13.978;2024-01-06T11:05:37;20.50;;;11.10;;
19030;SDS011;9648;51.130;13.978;2024-01-06T11:08:40;18.90;;;9.77;;
19030;SDS011;9648;51.130;13.978;2024-01-06T11:11:49;17.10;;;9.47;;
19030;SDS011;9648;51.130;13.978;2024-01-06T11:14:51;21.43;;;11.00;;
19030;SDS011;9648;51.130;13.978;2024-01-06T11:17:54;18.23;;;10.10;;
19030;SDS011;9648;51.130;13.978;2024-01-06T11:24:21;19.73;;;10.63;;
19030;SDS011;9648;51.130;13.978;2024-01-06T11:27:27;20.37;;;10.93;;
19030;SDS011;9648;51.130;13.978;2024-01-06T11:30:29;22.10;;;10.13;;
19030;SDS011;9648;51.130;13.978;2024-01-06T11:33:33;18.77;;;9.60;;
19030;SDS011;9648;51.130;13.978;2024-01-06T11:36:43;21.30;;;11.40;;
19030;SDS011;9648;51.130;13.978;2024-01-06T11:39:45;20.73;;;9.67;;
19030;SDS011;9648;51.130;13.978;2024-01-06T11:42:47;23.20;;;11.30;;
19030;SDS011;9648;51.130;13.978;2024-01-06T11:45:49;24.90;;;11.27;;
19030;SDS011;9648;51.130;13.978;2024-01-06T11:48:52;25.57;;;11.60;;
19030;SDS011;9648;51.130;13.978;2024-01-06T11:51:54;24.73;;;12.03;;
19030;SDS011;9648;51.130;13.978;2024-01-06T11:54:56;23.53;;;11.53;;
19030;SDS011;9648;51.130;13.978;2024-01-06T11:57:58;25.83;;;11.83;;
19030;SDS011;9648;51.130;13.978;2024-01-06T12:01:02;33.30;;;13.93;;
19030;SDS011;9648;51.130;13.978;2024-01-06T12:04:06;28.37;;;13.23;;
19030;SDS011;9648;51.130;13.978;2024-01-06T12:07:08;28.07;;;12.77;;
19030;SDS011;9648;51.130;13.978;2024-01-06T12:10:13;27.27;;;12.00;;
19030;SDS011;9648;51.130;13.978;2024-01-06T12:13:14;28.63;;;12.27;;
19030;SDS011;9648;51.130;13.978;2024-01-06T12:16:17;33.07;;;13.83;;
19030;SDS011;9648;51.130;13.978;2024-01-06T12:19:20;31.43;;;15.47;;
19030;SDS011;9648;51.130;13.978;2024-01-06T12:22:21;32.23;;;13.17;;
19030;SDS011;9648;51.130;13.978;2024-01-06T12:25:23;27.23;;;12.50;;
19030;SDS011;9648;51.130;13.978;2024-01-06T12:28:26;27.90;;;12.67;;
19030;SDS011;9648;51.130;13.978;2024-01-06T12:31:28;30.80;;;14.37;;
19030;SDS011;9648;51.130;13.978;2024-01-06T12:34:32;30.27;;;13.10;;
19030;SDS011;9648;51.130;13.978;2024-01-06T12:37:34;31.13;;;13.90;;
19030;SDS011;9648;51.130;13.978;2024-01-06T12:40:36;29.53;;;12.87;;
19030;SDS011;9648;51.130;13.978;2024-01-06T12:43:38;32.00;;;13.27;;
19030;SDS011;9648;51.130;13.978;2024-01-06T12:46:40;32.20;;;13.93;;
19030;SDS011;9648;51.130;13.978;2024-01-06T12:49:43;37.00;;;15.90;;
19030;SDS011;9648;51.130;13.978;2024-01-06T12:52:44;48.50;;;20.93;;
19030;SDS011;9648;51.130;13.978;2024-01-06T12:55:46;34.77;;;15.83;;
19030;SDS011;9648;51.130;13.978;2024-01-06T12:58:48;35.00;;;15.73;;
19030;SDS011;9648;51.130;13.978;2024-01-06T13:01:49;30.00;;;12.53;;
19030;SDS011;9648;51.130;13.978;2024-01-06T13:04:52;33.80;;;14.90;;
19030;SDS011;9648;51.130;13.978;2024-01-06T13:07:55;30.53;;;13.63;;
19030;SDS011;9648;51.130;13.978;2024-01-06T13:10:57;32.40;;;13.97;;
19030;SDS011;9648;51.130;13.978;2024-01-06T13:13:59;33.03;;;13.63;;
19030;SDS011;9648;51.130;13.978;2024-01-06T13:17:00;37.00;;;15.20;;
19030;SDS011;9648;51.130;13.978;2024-01-06T13:20:04;40.10;;;16.10;;
19030;SDS011;9648;51.130;13.978;2024-01-06T13:23:08;39.73;;;15.97;;
19030;SDS011;9648;51.130;13.978;2024-01-06T13:26:09;40.63;;;16.90;;
19030;SDS011;9648;51.130;13.978;2024-01-06T13:29:11;47.17;;;16.47;;
19030;SDS011;9648;51.130;13.978;2024-01-06T13:32:13;38.87;;;16.27;;
19030;SDS011;9648;51.130;13.978;2024-01-06T13:35:16;40.83;;;16.63;;
19030;SDS011;9648;51.130;13.978;2024-01-06T13:38:18;44.00;;;17.93;;
19030;SDS011;9648;51.130;13.978;2024-01-06T13:41:19;42.00;;;16.80;;
19030;SDS011;9648;51.130;13.978;2024-01-06T13:44:21;47.47;;;17.87;;
19030;SDS011;9648;51.130;13.978;2024-01-06T13:47:23;44.53;;;17.50;;
19030;SDS011;9648;51.130;13.978;2024-01-06T13:50:26;50.27;;;19.07;;
19030;SDS011;9648;51.130;13.978;2024-01-06T13:53:28;60.10;;;21.73;;
19030;SDS011;9648;51.130;13.978;2024-01-06T13:56:29;58.07;;;21.03;;
19030;SDS011;9648;51.130;13.978;2024-01-06T13:59:31;61.23;;;20.50;;
19030;SDS011;9648;51.130;13.978;2024-01-06T14:02:35;53.23;;;21.43;;
19030;SDS011;9648;51.130;13.978;2024-01-06T14:05:37;61.00;;;20.80;;
19030;SDS011;9648;51.130;13.978;2024-01-06T14:08:40;56.77;;;19.93;;
19030;SDS011;9648;51.130;13.978;2024-01-06T14:11:42;52.60;;;20.87;;
19030;SDS011;9648;51.130;13.978;2024-01-06T14:14:45;55.40;;;20.73;;
19030;SDS011;9648;51.130;13.978;2024-01-06T14:17:47;51.50;;;19.30;;
19030;SDS011;9648;51.130;13.978;2024-01-06T14:20:51;54.73;;;21.53;;
19030;SDS011;9648;51.130;13.978;2024-01-06T14:23:55;53.07;;;21.17;;
19030;SDS011;9648;51.130;13.978;2024-01-06T14:26:56;59.77;;;20.50;;
19030;SDS011;9648;51.130;13.978;2024-01-06T14:29:58;379.90;;;106.50;;
19030;SDS011;9648;51.130;13.978;2024-01-06T14:32:59;71.37;;;27.60;;
19030;SDS011;9648;51.130;13.978;2024-01-06T14:36:02;65.30;;;22.40;;
19030;SDS011;9648;51.130;13.978;2024-01-06T14:39:05;69.57;;;25.07;;
19030;SDS011;9648;51.130;13.978;2024-01-06T14:42:06;58.83;;;22.50;;
19030;SDS011;9648;51.130;13.978;2024-01-06T14:45:08;68.50;;;25.03;;
19030;SDS011;9648;51.130;13.978;2024-01-06T14:48:10;67.47;;;23.73;;
19030;SDS011;9648;51.130;13.978;2024-01-06T14:51:13;79.70;;;25.07;;
19030;SDS011;9648;51.130;13.978;2024-01-06T14:54:15;73.10;;;24.83;;
19030;SDS011;9648;51.130;13.978;2024-01-06T14:57:16;71.33;;;25.17;;
19030;SDS011;9648;51.130;13.978;2024-01-06T15:00:18;76.63;;;27.43;;
19030;SDS011;9648;51.130;13.978;2024-01-06T15:03:20;76.73;;;26.80;;
19030;SDS011;9648;51.130;13.978;2024-01-06T15:06:23;72.70;;;26.33;;
19030;SDS011;9648;51.130;13.978;2024-01-06T15:09:24;79.17;;;26.20;;
19030;SDS011;9648;51.130;13.978;2024-01-06T15:12:28;77.13;;;26.90;;
19030;SDS011;9648;51.130;13.978;2024-01-06T15:15:29;65.07;;;25.73;;
19030;SDS011;9648;51.130;13.978;2024-01-06T15:18:31;70.00;;;24.97;;
19030;SDS011;9648;51.130;13.978;2024-01-06T15:21:33;76.97;;;28.10;;
19030;SDS011;9648;51.130;13.978;2024-01-06T15:24:36;81.87;;;28.00;;
19030;SDS011;9648;51.130;13.978;2024-01-06T15:27:39;80.13;;;28.13;;
19030;SDS011;9648;51.130;13.978;2024-01-06T15:30:40;73.73;;;25.03;;
19030;SDS011;9648;51.130;13.978;2024-01-06T15:33:42;97.33;;;31.23;;
19030;SDS011;9648;51.130;13.978;2024-01-06T15:36:45;85.53;;;29.90;;
19030;SDS011;9648;51.130;13.978;2024-01-06T15:39:47;72.27;;;26.27;;
19030;SDS011;9648;51.130;13.978;2024-01-06T15:42:49;94.90;;;31.13;;
19030;SDS011;9648;51.130;13.978;2024-01-06T15:45:50;98.30;;;29.43;;
19030;SDS011;9648;51.130;13.978;2024-01-06T15:48:53;87.67;;;30.03;;
19030;SDS011;9648;51.130;13.978;2024-01-06T15:51:56;79.57;;;27.50;;
19030;SDS011;9648;51.130;13.978;2024-01-06T15:54:59;93.37;;;28.77;;
19030;SDS011;9648;51.130;13.978;2024-01-06T15:58:00;88.70;;;28.17;;
19030;SDS011;9648;51.130;13.978;2024-01-06T16:01:02;87.37;;;29.03;;
19030;SDS011;9648;51.130;13.978;2024-01-06T16:04:05;79.87;;;29.17;;
19030;SDS011;9648;51.130;13.978;2024-01-06T16:07:08;87.47;;;28.80;;
19030;SDS011;9648;51.130;13.978;2024-01-06T16:10:10;89.77;;;28.57;;
19030;SDS011;9648;51.130;13.978;2024-01-06T16:13:12;87.57;;;29.17;;
19030;SDS011;9648;51.130;13.978;2024-01-06T16:16:13;85.87;;;29.37;;
19030;SDS011;9648;51.130;13.978;2024-01-06T16:19:16;83.37;;;26.73;;
19030;SDS011;9648;51.130;13.978;2024-01-06T16:22:19;75.83;;;27.83;;
19030;SDS011;9648;51.130;13.978;2024-01-06T16:25:21;73.37;;;24.20;;
19030;SDS011;9648;51.130;13.978;2024-01-06T16:28:22;79.90;;;25.60;;
19030;SDS011;9648;51.130;13.978;2024-01-06T16:31:25;111.63;;;35.97;;
19030;SDS011;9648;51.130;13.978;2024-01-06T16:34:27;79.70;;;27.73;;
19030;SDS011;9648;51.130;13.978;2024-01-06T16:37:30;85.63;;;29.10;;
19030;SDS011;9648;51.130;13.978;2024-01-06T16:40:31;74.80;;;26.43;;
19030;SDS011;9648;51.130;13.978;2024-01-06T16:43:34;67.47;;;24.63;;
19030;SDS011;9648;51.130;13.978;2024-01-06T16:46:37;80.67;;;29.57;;
19030;SDS011;9648;51.130;13.978;2024-01-06T16:49:39;76.27;;;28.20;;
19030;SDS011;9648;51.130;13.978;2024-01-06T16:52:42;86.50;;;29.33;;
19030;SDS011;9648;51.130;13.978;2024-01-06T16:55:43;80.27;;;29.23;;
19030;SDS011;9648;51.130;13.978;2024-01-06T16:58:44;78.13;;;28.67;;
19030;SDS011;9648;51.130;13.978;2024-01-06T17:01:46;76.83;;;27.83;;
19030;SDS011;9648;51.130;13.978;2024-01-06T17:04:47;79.00;;;28.10;;
19030;SDS011;9648;51.130;13.978;2024-01-06T17:07:51;81.30;;;29.07;;
19030;SDS011;9648;51.130;13.978;2024-01-06T17:10:52;91.43;;;29.67;;
19030;SDS011;9648;51.130;13.978;2024-01-06T17:13:54;83.70;;;28.83;;
19030;SDS011;9648;51.130;13.978;2024-01-06T17:16:55;75.37;;;28.23;;
19030;SDS011;9648;51.130;13.978;2024-01-06T17:19:57;63.73;;;24.37;;
19030;SDS011;9648;51.130;13.978;2024-01-06T17:23:00;70.67;;;26.23;;
19030;SDS011;9648;51.130;13.978;2024-01-06T17:26:02;77.23;;;26.27;;
19030;SDS011;9648;51.130;13.978;2024-01-06T17:29:04;68.80;;;24.47;;
19030;SDS011;9648;51.130;13.978;2024-01-06T17:32:06;82.27;;;28.00;;
19030;SDS011;9648;51.130;13.978;2024-01-06T17:35:08;72.13;;;25.53;;
19030;SDS011;9648;51.130;13.978;2024-01-06T17:38:11;77.53;;;27.43;;
19030;SDS011;9648;51.130;13.978;2024-01-06T17:41:13;68.20;;;25.93;;
19030;SDS011;9648;51.130;13.978;2024-01-06T17:44:15;75.37;;;27.33;;
19030;SDS011;9648;51.130;13.978;2024-01-06T17:47:17;71.07;;;26.00;;
19030;SDS011;9648;51.130;13.978;2024-01-06T17:50:19;68.00;;;25.33;;
19030;SDS011;9648;51.130;13.978;2024-01-06T17:53:22;84.90;;;28.33;;
19030;SDS011;9648;51.130;13.978;2024-01-06T17:56:24;81.93;;;27.00;;
19030;SDS011;9648;51.130;13.978;2024-01-06T17:59:25;77.17;;;27.63;;
19030;SDS011;9648;51.130;13.978;2024-01-06T18:02:27;87.90;;;28.60;;